KJWY

Mid-Way Regional Airport

Midlothian/Waxahachie, Texas, USA
METAR KJWY 232255Z AUTO 32005KT 10SM CLR 14/M06 A3028 RMK AO2 T01401060
Observed Flight Rules
Jan-23 @ 22:55 UTC (21 minutes ago) Visual Flight Rules
Wind Visibility Clouds
320° at 5 knots 10 miles
  • Clear skies
Temperatures Readings
Current 14°C / 57°F
Dewpoint -6°C / 21°F
Humidity 25%
Altimeter 30.28" Hg
Pressure 1025 hPa
Elevation 217
METAR KJWY 232255Z AUTO 32005KT 10SM CLR 14/M06 A3028 RMK AO2 T01401060
Observed Flight Rules
Jan-23 @ 22:55 UTC
(21 minutes ago)
VFR
Wind Visibility
320° at 5 knots 10 miles
Clouds
  • Clear skies
Temperature Dewpoint
14°C / 57°F -6°C / 21°F
Humidity Altimeter Pressure
25% 30.28" Hg 1025 hPa